createdAt,value
2024-03-15T00:00:13.830Z,99980.06
2024-03-15T00:02:41.593Z,99990.50
2024-03-15T00:05:10.515Z,99975.06
2024-03-15T00:07:36.441Z,99986.31
2024-03-15T00:10:02.253Z,99995.94
2024-03-15T00:12:28.136Z,99994.38
2024-03-15T00:14:55.822Z,99966.78
2024-03-15T00:17:21.678Z,99991.84
2024-03-15T00:19:47.467Z,100000.63
2024-03-15T00:22:13.398Z,99989.34
2024-03-15T00:24:39.381Z,99991.91
2024-03-15T00:27:05.836Z,99990.94
2024-03-15T00:29:31.897Z,99975.41
2024-03-15T00:31:59.488Z,99989.13
2024-03-15T00:34:25.555Z,99989.28
2024-03-15T00:36:53.143Z,99987.47
2024-03-15T00:39:20.901Z,99979.53
2024-03-15T00:41:47.268Z,99968.22
2024-03-15T00:44:15.001Z,99974.31
2024-03-15T00:46:40.970Z,99956.13
2024-03-15T00:49:07.009Z,99952.66
2024-03-15T00:51:33.509Z,99976.22
2024-03-15T00:53:59.415Z,99945.03
2024-03-15T00:56:25.468Z,99967.66
2024-03-15T00:58:52.452Z,99954.72
2024-03-15T01:01:19.881Z,99946.94
2024-03-15T01:03:46.313Z,99956.69
2024-03-15T01:06:14.367Z,99963.59
2024-03-15T01:08:40.770Z,99936.09
2024-03-15T01:11:08.038Z,99945.16
2024-03-15T01:13:34.559Z,99974.75
2024-03-15T01:16:01.208Z,99962.50
2024-03-15T01:18:27.267Z,99948.91
2024-03-15T01:20:53.155Z,99963.63
2024-03-15T01:23:19.232Z,99931.69
2024-03-15T01:25:47.959Z,99975.69
2024-03-15T01:28:15.256Z,99973.16
2024-03-15T01:30:43.455Z,99963.66
2024-03-15T01:33:10.914Z,99973.31
2024-03-15T01:35:37.159Z,99967.53
2024-03-15T01:38:03.590Z,99963.28
2024-03-15T01:40:35.234Z,99910.53
2024-03-15T01:43:01.617Z,99960.56
2024-03-15T01:45:28.162Z,99959.56
2024-03-15T01:47:56.387Z,99929.44
2024-03-15T01:50:23.705Z,99951.16
2024-03-15T01:52:51.458Z,99947.63
2024-03-15T01:55:17.490Z,99953.66
2024-03-15T01:57:43.672Z,99960.63
2024-03-15T02:00:14.138Z,99971.94
2024-03-15T02:02:40.883Z,99977.28
2024-03-15T02:05:07.000Z,99963.47
2024-03-15T02:07:33.305Z,99961.31
2024-03-15T02:10:00.132Z,99969.13
2024-03-15T02:12:26.307Z,99961.28
2024-03-15T02:14:52.363Z,99967.41
2024-03-15T02:17:18.980Z,99969.22
2024-03-15T02:19:47.852Z,99951.19
2024-03-15T02:22:13.777Z,99960.84
2024-03-15T02:24:41.058Z,99973.78
2024-03-15T02:27:07.834Z,99992.19
2024-03-15T02:29:34.577Z,99981.84
2024-03-15T02:32:00.686Z,99988.00
2024-03-15T02:34:26.595Z,99985.31
2024-03-15T02:36:52.796Z,99941.41
2024-03-15T02:39:19.713Z,99962.25
2024-03-15T02:41:46.605Z,99985.88
2024-03-15T02:44:12.715Z,99959.88
2024-03-15T02:46:38.745Z,99978.28
2024-03-15T02:49:04.584Z,99967.22
2024-03-15T02:51:30.986Z,99974.94
2024-03-15T02:53:57.274Z,99967.16
2024-03-15T02:56:23.369Z,99965.47
2024-03-15T02:58:49.307Z,99995.91
2024-03-15T03:01:15.811Z,99989.06
2024-03-15T03:03:42.677Z,99995.22
2024-03-15T03:06:09.108Z,99985.78
2024-03-15T03:08:36.066Z,99971.19
2024-03-15T03:11:07.214Z,99989.50
2024-03-15T03:13:36.785Z,99987.75
2024-03-15T03:16:02.913Z,99990.31
2024-03-15T03:18:28.918Z,99988.56
2024-03-15T03:20:56.128Z,99982.47
2024-03-15T03:23:22.813Z,99990.41
2024-03-15T03:25:50.090Z,99967.94
2024-03-15T03:28:16.499Z,99984.44
2024-03-15T03:30:43.494Z,99987.00
2024-03-15T03:33:09.740Z,99981.09
2024-03-15T03:35:35.705Z,99964.75
2024-03-15T03:38:03.190Z,99998.56
2024-03-15T03:40:29.347Z,99984.00
2024-03-15T03:42:55.342Z,99977.81
2024-03-15T03:45:23.326Z,99962.22
2024-03-15T03:47:50.454Z,99993.44
2024-03-15T03:50:18.181Z,100008.19
2024-03-15T03:52:44.626Z,99990.22
2024-03-15T03:55:10.750Z,100003.19
2024-03-15T03:57:44.603Z,99992.09
2024-03-15T04:00:18.130Z,100011.00
2024-03-15T04:02:48.403Z,99995.41
2024-03-15T04:05:15.780Z,99991.09
2024-03-15T04:07:44.773Z,100004.31
2024-03-15T04:10:10.686Z,99991.25
2024-03-15T04:12:36.607Z,99993.06
2024-03-15T04:15:11.799Z,100015.66
2024-03-15T04:17:47.023Z,99990.53
2024-03-15T04:20:16.513Z,100014.00
2024-03-15T04:22:46.425Z,100016.91
2024-03-15T04:25:17.366Z,99991.69
2024-03-15T04:27:49.610Z,99997.03
2024-03-15T04:30:16.476Z,100005.81
2024-03-15T04:32:52.753Z,100011.94
2024-03-15T04:35:18.704Z,100007.44
2024-03-15T04:37:45.412Z,100016.06
2024-03-15T04:40:11.882Z,99976.22
2024-03-15T04:42:37.825Z,99995.47
2024-03-15T04:45:07.122Z,100018.09
2024-03-15T04:47:33.015Z,100013.69
2024-03-15T04:50:01.014Z,100012.88
2024-03-15T04:52:27.373Z,99996.59
2024-03-15T04:54:53.259Z,100024.41
2024-03-15T04:57:22.531Z,100020.94
2024-03-15T04:59:48.389Z,99994.09
2024-03-15T05:02:14.300Z,99997.53
2024-03-15T05:04:41.717Z,100026.13
2024-03-15T05:07:07.692Z,100014.00
2024-03-15T05:09:33.628Z,100034.84
2024-03-15T05:11:59.536Z,100027.91
2024-03-15T05:14:25.390Z,100003.66
2024-03-15T05:16:55.075Z,100027.13
2024-03-15T05:19:26.824Z,100003.75
2024-03-15T05:21:56.333Z,100026.25
2024-03-15T05:24:22.250Z,100030.63
2024-03-15T05:26:48.358Z,100029.81
2024-03-15T05:29:14.996Z,100004.66
2024-03-15T05:31:40.944Z,100035.06
2024-03-15T05:34:08.410Z,100025.44
2024-03-15T05:36:35.185Z,100004.59
2024-03-15T05:39:01.811Z,100021.03
2024-03-15T05:41:27.784Z,100028.84
2024-03-15T05:43:53.832Z,99988.94
2024-03-15T05:46:21.403Z,100020.16
2024-03-15T05:48:47.531Z,100036.59
2024-03-15T05:51:13.440Z,100026.03
2024-03-15T05:53:39.331Z,99993.97
2024-03-15T05:56:05.264Z,100031.19
2024-03-15T05:58:31.106Z,99997.53
2024-03-15T06:00:56.952Z,100026.00
2024-03-15T06:03:22.846Z,100017.22
2024-03-15T06:05:48.658Z,100042.28
2024-03-15T06:08:14.536Z,100030.03
2024-03-15T06:10:40.324Z,100041.13
2024-03-15T06:13:06.337Z,100031.53
2024-03-15T06:15:32.525Z,100046.16
2024-03-15T06:17:58.384Z,100006.19
2024-03-15T06:20:24.493Z,100038.19
2024-03-15T06:22:50.656Z,100023.34
2024-03-15T06:25:16.578Z,100048.44
2024-03-15T06:27:44.744Z,100052.63
2024-03-15T06:30:12.862Z,100054.25
2024-03-15T06:32:39.336Z,100035.00
2024-03-15T06:35:27.537Z,100054.69
2024-03-15T06:37:54.973Z,100031.19
2024-03-15T06:40:31.173Z,100040.66
2024-03-15T06:43:03.380Z,100039.75
2024-03-15T06:45:45.556Z,100047.19
2024-03-15T06:48:18.390Z,100040.78
2024-03-15T06:51:00.735Z,100037.06
2024-03-15T06:53:29.584Z,100060.13
2024-03-15T06:55:57.388Z,100057.28
2024-03-15T06:58:24.498Z,100060.28
2024-03-15T07:00:51.187Z,100058.97
2024-03-15T07:03:17.201Z,100041.25
2024-03-15T07:05:43.289Z,100061.03
2024-03-15T07:08:09.189Z,100063.13
2024-03-15T07:10:35.020Z,100060.84
2024-03-15T07:13:03.783Z,100057.66
2024-03-15T07:15:29.685Z,100057.22
2024-03-15T07:17:55.534Z,100054.19
2024-03-15T07:20:21.652Z,100043.13
2024-03-15T07:22:47.744Z,100052.09
2024-03-15T07:25:15.506Z,100039.41
2024-03-15T07:27:42.476Z,100059.66
2024-03-15T07:30:12.094Z,100039.97
2024-03-15T07:32:38.795Z,100059.19
2024-03-15T07:35:06.996Z,100062.25
2024-03-15T07:37:33.115Z,100069.34
2024-03-15T07:39:59.923Z,100053.25
2024-03-15T07:42:25.985Z,100064.72
2024-03-15T07:44:51.965Z,100065.03
2024-03-15T07:47:19.118Z,100069.69
2024-03-15T07:49:45.524Z,100050.97
2024-03-15T07:52:11.424Z,100059.47
2024-03-15T07:54:37.358Z,100071.00
2024-03-15T07:57:03.478Z,100067.97
2024-03-15T07:59:29.391Z,100062.56
2024-03-15T08:01:56.008Z,100057.94
2024-03-15T08:04:21.858Z,100061.44
2024-03-15T08:06:47.776Z,100061.34
2024-03-15T08:09:15.867Z,100056.66
2024-03-15T08:11:43.111Z,100067.97
2024-03-15T08:14:09.018Z,100071.84
2024-03-15T08:16:35.476Z,100078.53
2024-03-15T08:19:02.809Z,100076.66
2024-03-15T08:21:28.729Z,100070.13
2024-03-15T08:23:54.666Z,100070.72
2024-03-15T08:26:21.148Z,100052.41
2024-03-15T08:28:50.095Z,100067.69
2024-03-15T08:31:16.843Z,100064.50
2024-03-15T08:33:45.192Z,100044.84
2024-03-15T08:36:13.048Z,100065.81
2024-03-15T08:38:41.232Z,100035.84
2024-03-15T08:41:07.486Z,100070.28
2024-03-15T08:43:35.460Z,100044.78
2024-03-15T08:46:01.513Z,100071.03
2024-03-15T08:48:31.166Z,100043.06
2024-03-15T08:50:57.797Z,100044.06
2024-03-15T08:53:26.595Z,100054.97
2024-03-15T08:55:52.624Z,100062.28
2024-03-15T08:58:18.543Z,100058.06
2024-03-15T09:00:44.563Z,100052.66
2024-03-15T09:03:10.994Z,100040.69
2024-03-15T09:05:38.886Z,100058.84
2024-03-15T09:08:07.241Z,100062.03
2024-03-15T09:10:33.872Z,100058.56
2024-03-15T09:12:59.828Z,100042.91
2024-03-15T09:15:27.155Z,100059.09
2024-03-15T09:17:53.716Z,100040.09
2024-03-15T09:20:28.668Z,100047.56
2024-03-15T09:22:54.819Z,100051.75
2024-03-15T09:25:23.890Z,100046.16
2024-03-15T09:27:53.490Z,100055.16
2024-03-15T09:30:26.798Z,100054.00
2024-03-15T09:32:53.895Z,100053.84
2024-03-15T09:35:20.062Z,100055.41
2024-03-15T09:37:51.827Z,100052.56
2024-03-15T09:40:24.029Z,100043.66
2024-03-15T09:42:53.218Z,100034.31
2024-03-15T09:45:19.326Z,100032.09
2024-03-15T09:47:52.121Z,100046.16
2024-03-15T09:50:24.497Z,100029.84
2024-03-15T09:52:51.490Z,100041.63
2024-03-15T09:55:18.602Z,100024.34
2024-03-15T09:57:45.225Z,100029.41
2024-03-15T10:00:17.085Z,100036.13
2024-03-15T10:02:48.035Z,100034.41
2024-03-15T10:05:17.614Z,100044.56
2024-03-15T10:07:44.328Z,100040.97
2024-03-15T10:10:12.066Z,100025.84
2024-03-15T10:12:46.853Z,100023.59
2024-03-15T10:15:14.941Z,100034.44
2024-03-15T10:17:43.736Z,100013.69
2024-03-15T10:20:18.402Z,100025.88
2024-03-15T10:22:51.476Z,100027.78
2024-03-15T10:25:19.559Z,100016.97
2024-03-15T10:27:46.377Z,100029.00
2024-03-15T10:30:18.202Z,100021.41
2024-03-15T10:32:47.457Z,100004.91
2024-03-15T10:35:14.469Z,100009.28
2024-03-15T10:37:42.975Z,100012.09
2024-03-15T10:40:21.231Z,99994.22
2024-03-15T10:42:49.309Z,99997.22
2024-03-15T10:45:17.273Z,100016.06
2024-03-15T10:47:46.504Z,100014.72
2024-03-15T10:50:20.990Z,100019.19
2024-03-15T10:52:53.903Z,100026.41
2024-03-15T10:55:26.626Z,100018.16
2024-03-15T10:57:57.698Z,100017.38
2024-03-15T11:00:25.457Z,99986.28
2024-03-15T11:02:55.790Z,100007.00
2024-03-15T11:05:26.705Z,99997.53
2024-03-15T11:08:05.392Z,100005.78
2024-03-15T11:10:34.214Z,100011.03
2024-03-15T11:13:01.698Z,99994.09
2024-03-15T11:15:34.158Z,99992.13
2024-03-15T11:18:04.058Z,100009.72
2024-03-15T11:20:47.146Z,99980.09
2024-03-15T11:23:16.967Z,100008.34
2024-03-15T11:26:06.948Z,100008.88
2024-03-15T11:28:34.627Z,99984.47
2024-03-15T11:31:00.838Z,99998.28
2024-03-15T11:33:28.385Z,100000.09
2024-03-15T11:35:55.481Z,100006.81
2024-03-15T11:38:21.580Z,99994.44
2024-03-15T11:40:48.234Z,100000.16
2024-03-15T11:43:15.269Z,99975.31
2024-03-15T11:45:42.454Z,99987.72
2024-03-15T11:48:17.077Z,99953.66
2024-03-15T11:50:45.133Z,99954.78
2024-03-15T11:53:13.030Z,99963.16
2024-03-15T11:55:42.865Z,99958.25
2024-03-15T11:58:13.292Z,99922.88
2024-03-15T12:00:39.311Z,99959.59
2024-03-15T12:03:07.533Z,99967.91
2024-03-15T12:05:38.413Z,99961.22
2024-03-15T12:08:13.064Z,99955.78
2024-03-15T12:10:39.788Z,99973.16
2024-03-15T12:13:26.220Z,99943.59
2024-03-15T12:15:53.919Z,99950.78
2024-03-15T12:18:22.236Z,99946.09
2024-03-15T12:20:50.893Z,99954.78
2024-03-15T12:23:18.758Z,99943.44
2024-03-15T12:25:47.463Z,99948.03
2024-03-15T12:28:15.024Z,99927.22
2024-03-15T12:30:46.071Z,99957.72
2024-03-15T12:33:12.464Z,99948.03
2024-03-15T12:35:39.887Z,99950.69
2024-03-15T12:38:07.499Z,99943.25
2024-03-15T12:40:34.196Z,99950.88
2024-03-15T12:43:00.272Z,99911.63
2024-03-15T12:45:27.466Z,99928.38
2024-03-15T12:47:53.302Z,99940.59
2024-03-15T12:50:20.904Z,99935.81
2024-03-15T12:52:46.969Z,99956.31
2024-03-15T12:55:17.462Z,99936.75
2024-03-15T12:57:46.195Z,99934.31
2024-03-15T13:00:14.639Z,99946.88
2024-03-15T13:02:43.009Z,99936.97
2024-03-15T13:05:16.689Z,99929.25
2024-03-15T13:07:43.513Z,99919.44
2024-03-15T13:10:09.609Z,99922.88
2024-03-15T13:12:36.060Z,99941.72
2024-03-15T13:15:02.086Z,99934.84
2024-03-15T13:17:27.923Z,99927.53
2024-03-15T13:19:53.981Z,99920.75
2024-03-15T13:22:20.367Z,99940.00
2024-03-15T13:24:46.416Z,99920.09
2024-03-15T13:27:15.463Z,99922.66
2024-03-15T13:29:41.410Z,99916.38
2024-03-15T13:32:10.250Z,99924.09
2024-03-15T13:34:36.217Z,99911.53
2024-03-15T13:37:02.112Z,99916.19
2024-03-15T13:39:31.747Z,99903.78
2024-03-15T13:42:01.577Z,99913.91
2024-03-15T13:44:28.382Z,99929.91
2024-03-15T13:46:54.754Z,99924.00
2024-03-15T13:49:20.917Z,99909.44
2024-03-15T13:51:46.914Z,99893.69
2024-03-15T13:54:12.840Z,99919.69
2024-03-15T13:56:38.904Z,99906.84
2024-03-15T13:59:06.280Z,99912.97
2024-03-15T14:01:32.139Z,99893.81
2024-03-15T14:03:58.908Z,99908.34
2024-03-15T14:06:27.089Z,99910.75
2024-03-15T14:08:54.155Z,99898.75
2024-03-15T14:11:20.520Z,99894.28
2024-03-15T14:13:49.523Z,99905.31
2024-03-15T14:16:16.631Z,99885.50
2024-03-15T14:18:43.268Z,99901.78
2024-03-15T14:21:09.143Z,99907.78
2024-03-15T14:23:35.060Z,99890.09
2024-03-15T14:26:00.865Z,99878.66
2024-03-15T14:28:28.731Z,99892.34
2024-03-15T14:30:57.635Z,99897.13
2024-03-15T14:33:23.885Z,99905.13
2024-03-15T14:35:51.572Z,99902.34
2024-03-15T14:38:18.357Z,99897.31
2024-03-15T14:40:44.193Z,99909.13
2024-03-15T14:43:11.297Z,99901.97
2024-03-15T14:45:38.288Z,99889.69
2024-03-15T14:48:10.272Z,99899.41
2024-03-15T14:50:40.329Z,99883.22
2024-03-15T14:53:06.352Z,99904.53
2024-03-15T14:55:35.682Z,99880.94
2024-03-15T14:58:03.393Z,99899.63
2024-03-15T15:00:32.270Z,99895.78
2024-03-15T15:02:58.554Z,99888.47
2024-03-15T15:05:27.762Z,99882.28
2024-03-15T15:07:59.218Z,99897.03
2024-03-15T15:10:25.821Z,99900.34
2024-03-15T15:12:53.571Z,99896.19
2024-03-15T15:15:22.926Z,99891.03
2024-03-15T15:17:51.201Z,99893.59
2024-03-15T15:20:18.851Z,99898.09
2024-03-15T15:22:47.015Z,99899.72
2024-03-15T15:25:15.227Z,99899.81
2024-03-15T15:27:43.570Z,99895.59
2024-03-15T15:30:11.384Z,99889.78
2024-03-15T15:32:37.468Z,99893.31
2024-03-15T15:35:08.522Z,99886.66
2024-03-15T15:37:37.926Z,99894.00
2024-03-15T15:40:13.883Z,99906.09
2024-03-15T15:42:41.133Z,99889.31
2024-03-15T15:45:08.507Z,99898.66
2024-03-15T15:47:34.541Z,99895.63
2024-03-15T15:50:05.775Z,99904.19
2024-03-15T15:52:35.260Z,99889.72
2024-03-15T15:55:01.431Z,99899.44
2024-03-15T15:57:27.365Z,99910.94
2024-03-15T15:59:53.209Z,99891.38
2024-03-15T16:02:19.438Z,99897.13
2024-03-15T16:04:45.397Z,99900.91
2024-03-15T16:07:11.267Z,99897.47
2024-03-15T16:09:37.155Z,99904.53
2024-03-15T16:12:03.909Z,99897.09
2024-03-15T16:14:30.125Z,99910.81
2024-03-15T16:16:57.786Z,99897.25
2024-03-15T16:19:23.945Z,99878.75
2024-03-15T16:21:49.871Z,99912.56
2024-03-15T16:24:15.767Z,99908.53
2024-03-15T16:26:41.674Z,99898.69
2024-03-15T16:29:07.746Z,99913.13
2024-03-15T16:31:33.753Z,99899.75
2024-03-15T16:33:59.685Z,99896.69
2024-03-15T16:36:27.933Z,99922.97
2024-03-15T16:38:58.026Z,99919.91
2024-03-15T16:41:26.128Z,99924.97
2024-03-15T16:43:52.099Z,99928.00
2024-03-15T16:46:18.522Z,99930.91
2024-03-15T16:48:44.357Z,99912.38
2024-03-15T16:51:10.191Z,99918.09
2024-03-15T16:53:36.999Z,99940.00
2024-03-15T16:56:03.208Z,99943.94
2024-03-15T16:58:30.035Z,99925.25
2024-03-15T17:00:56.155Z,99939.41
2024-03-15T17:03:22.301Z,99931.34
2024-03-15T17:05:48.285Z,99959.50
2024-03-15T17:08:15.182Z,99945.53
2024-03-15T17:10:41.522Z,99933.72
2024-03-15T17:13:07.925Z,99941.72
2024-03-15T17:15:35.802Z,99959.38
2024-03-15T17:18:01.923Z,99954.88
2024-03-15T17:20:27.852Z,99965.50
2024-03-15T17:22:53.691Z,99952.06
2024-03-15T17:25:19.604Z,99944.63
2024-03-15T17:27:45.463Z,99961.28
2024-03-15T17:30:11.604Z,99933.47
2024-03-15T17:32:38.424Z,99973.69
2024-03-15T17:35:05.786Z,99966.13
2024-03-15T17:37:32.181Z,99975.88
2024-03-15T17:39:58.123Z,99966.41
2024-03-15T17:42:24.513Z,99970.16
2024-03-15T17:44:50.381Z,99954.88
2024-03-15T17:47:16.421Z,99960.41
2024-03-15T17:49:42.265Z,99940.78
2024-03-15T17:52:08.176Z,99950.81
2024-03-15T17:54:36.098Z,99961.28
2024-03-15T17:57:01.950Z,99978.66
2024-03-15T17:59:27.879Z,99960.94
2024-03-15T18:01:53.999Z,99981.13
2024-03-15T18:04:21.524Z,99992.78
2024-03-15T18:06:47.445Z,99991.28
2024-03-15T18:09:13.308Z,99978.66
2024-03-15T18:11:39.476Z,99983.25
2024-03-15T18:14:05.640Z,99981.09
2024-03-15T18:16:33.282Z,99985.09
2024-03-15T18:18:59.625Z,99984.41
2024-03-15T18:21:25.667Z,99984.72
2024-03-15T18:23:51.727Z,99997.03
2024-03-15T18:26:19.155Z,100001.50
2024-03-15T18:28:45.084Z,99994.78
2024-03-15T18:31:14.402Z,99975.31
2024-03-15T18:33:40.491Z,99993.50
2024-03-15T18:36:06.759Z,99998.19
2024-03-15T18:38:32.671Z,100024.56
2024-03-15T18:40:58.575Z,100003.16
2024-03-15T18:43:24.441Z,100000.84
2024-03-15T18:45:50.538Z,100015.94
2024-03-15T18:48:16.600Z,100026.81
2024-03-15T18:50:42.937Z,100027.19
2024-03-15T18:53:09.141Z,100039.75
2024-03-15T18:55:35.110Z,100035.53
2024-03-15T18:58:01.640Z,100038.44
2024-03-15T19:00:29.520Z,100023.28
2024-03-15T19:02:56.355Z,100023.53
2024-03-15T19:05:22.846Z,100025.25
2024-03-15T19:07:51.288Z,100006.41
2024-03-15T19:10:17.487Z,100004.22
2024-03-15T19:12:43.359Z,100010.47
2024-03-15T19:15:09.359Z,100020.78
2024-03-15T19:17:36.119Z,100027.81
2024-03-15T19:20:06.518Z,100005.53
2024-03-15T19:22:33.817Z,100024.84
2024-03-15T19:24:59.948Z,100028.53
2024-03-15T19:27:26.855Z,100008.66
2024-03-15T19:29:54.010Z,100007.22
2024-03-15T19:32:27.991Z,100021.50
2024-03-15T19:34:58.774Z,100026.78
2024-03-15T19:37:28.219Z,100019.22
2024-03-15T19:39:54.429Z,100005.56
2024-03-15T19:42:20.519Z,100023.53
2024-03-15T19:44:46.464Z,100000.38
2024-03-15T19:47:12.761Z,100016.25
2024-03-15T19:49:38.731Z,100023.94
2024-03-15T19:52:05.029Z,100024.97
2024-03-15T19:54:31.153Z,100015.63
2024-03-15T19:56:57.121Z,100030.81
2024-03-15T19:59:23.128Z,100026.53
2024-03-15T20:01:49.351Z,100023.88
2024-03-15T20:04:16.178Z,100015.84
2024-03-15T20:06:42.419Z,99999.50
2024-03-15T20:09:08.612Z,100020.25
2024-03-15T20:11:37.437Z,100028.00
2024-03-15T20:14:06.181Z,100013.84
2024-03-15T20:16:34.195Z,99978.72
2024-03-15T20:19:00.398Z,99993.31
2024-03-15T20:21:26.348Z,100015.00
2024-03-15T20:23:56.762Z,100013.41
2024-03-15T20:26:24.612Z,100021.13
2024-03-15T20:28:54.080Z,100013.31
2024-03-15T20:31:20.000Z,100020.31
2024-03-15T20:33:45.834Z,100005.75
2024-03-15T20:36:11.700Z,100013.53
2024-03-15T20:38:37.493Z,100018.91
2024-03-15T20:41:03.480Z,100028.31
2024-03-15T20:43:30.764Z,100031.00
2024-03-15T20:45:57.124Z,100032.81
2024-03-15T20:48:23.024Z,100011.72
2024-03-15T20:50:53.768Z,100020.25
2024-03-15T20:53:19.615Z,100026.78
2024-03-15T20:55:45.437Z,100034.88
2024-03-15T20:58:11.865Z,100028.94
2024-03-15T21:00:38.307Z,100044.66
2024-03-15T21:03:04.289Z,100018.63
2024-03-15T21:05:30.694Z,100039.41
2024-03-15T21:07:56.791Z,100036.81
2024-03-15T21:10:22.918Z,100037.78
2024-03-15T21:12:48.830Z,100046.69
2024-03-15T21:15:14.699Z,100029.44
2024-03-15T21:17:41.326Z,100045.06
2024-03-15T21:20:16.415Z,100041.53
2024-03-15T21:22:43.408Z,100045.78
2024-03-15T21:25:10.954Z,100048.50
2024-03-15T21:27:37.205Z,100057.50
2024-03-15T21:30:06.258Z,100055.78
2024-03-15T21:32:35.305Z,100053.31
2024-03-15T21:35:01.386Z,100059.66
2024-03-15T21:37:27.319Z,100058.06
2024-03-15T21:39:53.240Z,100058.84
2024-03-15T21:42:19.419Z,100072.91
2024-03-15T21:44:46.788Z,100063.53
2024-03-15T21:47:12.687Z,100040.97
2024-03-15T21:49:38.593Z,100028.13
2024-03-15T21:52:05.031Z,100063.81
2024-03-15T21:54:33.335Z,100069.00
2024-03-15T21:56:59.151Z,100064.72
2024-03-15T21:59:26.193Z,100055.22
2024-03-15T22:01:56.459Z,100054.44
2024-03-15T22:04:30.307Z,100077.81
2024-03-15T22:06:56.547Z,100068.13
2024-03-15T22:09:22.651Z,100055.16
2024-03-15T22:11:48.529Z,100012.91
2024-03-15T22:14:14.316Z,100068.09
2024-03-15T22:16:40.236Z,100051.66
2024-03-15T22:19:06.239Z,100067.31
2024-03-15T22:21:32.202Z,100065.53
2024-03-15T22:23:58.005Z,100056.84
2024-03-15T22:26:23.899Z,100040.47
2024-03-15T22:28:49.924Z,100062.75
2024-03-15T22:31:16.590Z,100063.75
2024-03-15T22:33:43.621Z,100068.22
2024-03-15T22:36:09.600Z,100069.84
2024-03-15T22:38:36.276Z,100077.72
2024-03-15T22:41:02.686Z,100070.00
2024-03-15T22:43:30.533Z,100050.16
2024-03-15T22:45:56.622Z,100064.72
2024-03-15T22:48:23.667Z,100066.50
2024-03-15T22:50:49.684Z,100061.31
2024-03-15T22:53:16.143Z,100052.03
2024-03-15T22:55:45.797Z,100047.91
2024-03-15T22:58:11.827Z,100052.44
2024-03-15T23:00:43.755Z,100048.09
2024-03-15T23:03:10.216Z,100060.91
2024-03-15T23:05:36.056Z,100053.16
2024-03-15T23:08:01.963Z,100068.81
2024-03-15T23:10:27.828Z,100049.94
2024-03-15T23:12:54.880Z,100070.53
2024-03-15T23:15:21.259Z,100053.28
2024-03-15T23:17:49.290Z,100065.44
2024-03-15T23:20:17.716Z,100071.50
2024-03-15T23:22:46.086Z,100071.63
2024-03-15T23:25:13.202Z,100059.84
2024-03-15T23:27:39.436Z,100060.75
2024-03-15T23:30:07.429Z,100064.41
2024-03-15T23:32:33.844Z,100069.69
2024-03-15T23:35:05.373Z,100045.41
2024-03-15T23:37:32.375Z,100061.72
2024-03-15T23:39:58.396Z,100059.31
2024-03-15T23:42:24.340Z,100052.72
2024-03-15T23:44:50.283Z,100058.63
2024-03-15T23:47:16.114Z,100048.28
2024-03-15T23:49:42.931Z,100067.72
2024-03-15T23:52:10.186Z,100070.34
2024-03-15T23:54:37.492Z,100083.44
2024-03-15T23:57:03.584Z,100056.59
2024-03-15T23:59:29.403Z,100057.59
